createdAt,value
2022-12-18T00:00:09.739Z,1.88
2022-12-18T00:05:07.083Z,1.50
2022-12-18T00:07:37.426Z,1.67
2022-12-18T00:10:06.961Z,1.40
2022-12-18T00:12:35.373Z,1.80
2022-12-18T00:15:03.731Z,1.85
2022-12-18T00:17:31.915Z,1.90
2022-12-18T00:20:00.210Z,1.60
2022-12-18T00:22:28.459Z,1.50
2022-12-18T00:24:58.162Z,1.92
2022-12-18T00:27:26.373Z,1.30
2022-12-18T00:29:54.779Z,1.88
2022-12-18T00:32:22.998Z,1.50
2022-12-18T00:34:51.265Z,1.58
2022-12-18T00:37:20.458Z,1.50
2022-12-18T00:39:51.453Z,1.48
2022-12-18T00:42:38.460Z,1.45
2022-12-18T00:45:12.313Z,1.48
2022-12-18T00:47:41.954Z,1.40
2022-12-18T00:50:11.584Z,1.70
2022-12-18T00:52:43.740Z,1.35
2022-12-18T00:55:12.766Z,1.10
2022-12-18T00:57:42.780Z,1.50
2022-12-18T01:00:16.386Z,1.45
2022-12-18T01:02:45.424Z,1.60
2022-12-18T01:05:15.301Z,1.70
2022-12-18T01:07:44.015Z,1.13
2022-12-18T01:10:14.229Z,1.30
2022-12-18T01:12:44.332Z,1.20
2022-12-18T01:15:14.410Z,1.58
2022-12-18T01:17:42.660Z,1.58
2022-12-18T01:20:13.205Z,1.20
2022-12-18T01:22:41.948Z,1.20
2022-12-18T01:25:10.869Z,1.05
2022-12-18T01:27:39.193Z,0.88
2022-12-18T01:30:10.181Z,1.23
2022-12-18T01:32:38.553Z,1.08
2022-12-18T01:35:08.077Z,1.27
2022-12-18T01:37:36.313Z,0.60
2022-12-18T01:40:04.931Z,1.00
2022-12-18T01:42:33.242Z,1.30
2022-12-18T01:45:23.503Z,0.90
2022-12-18T01:47:54.333Z,1.52
2022-12-18T01:50:25.553Z,1.35
2022-12-18T01:52:56.989Z,1.00
2022-12-18T01:55:29.677Z,1.27
2022-12-18T01:58:00.751Z,0.90
2022-12-18T02:00:31.397Z,1.00
2022-12-18T02:02:59.761Z,1.30
2022-12-18T02:05:39.251Z,1.25
2022-12-18T02:08:12.980Z,1.05
2022-12-18T02:10:49.903Z,1.05
2022-12-18T02:13:26.370Z,0.90
2022-12-18T02:16:05.962Z,1.00
2022-12-18T02:18:38.351Z,0.90
2022-12-18T02:21:13.785Z,1.10
2022-12-18T02:23:51.200Z,1.10
2022-12-18T02:26:24.294Z,1.25
2022-12-18T02:28:57.297Z,0.85
2022-12-18T02:31:29.243Z,0.88
2022-12-18T02:34:02.042Z,0.80
2022-12-18T02:36:31.747Z,1.20
2022-12-18T02:39:01.901Z,1.08
2022-12-18T02:41:32.476Z,1.05
2022-12-18T02:44:08.853Z,1.10
2022-12-18T02:46:44.685Z,1.38
2022-12-18T02:49:25.319Z,1.10
2022-12-18T02:51:57.854Z,1.15
2022-12-18T02:54:38.213Z,1.10
2022-12-18T02:57:20.621Z,1.13
2022-12-18T03:00:01.045Z,1.15
2022-12-18T03:02:36.426Z,1.30
2022-12-18T03:05:14.020Z,1.25
2022-12-18T03:07:48.325Z,1.23
2022-12-18T03:10:21.953Z,1.20
2022-12-18T03:12:55.768Z,0.90
2022-12-18T03:15:30.617Z,1.40
2022-12-18T03:18:05.085Z,0.90
2022-12-18T03:20:36.367Z,1.20
2022-12-18T03:23:10.371Z,1.08
2022-12-18T03:25:43.443Z,1.20
2022-12-18T03:28:15.941Z,1.20
2022-12-18T03:30:46.637Z,1.08
2022-12-18T03:33:20.738Z,1.30
2022-12-18T03:35:49.287Z,1.13
2022-12-18T03:38:17.773Z,1.20
2022-12-18T03:40:55.249Z,1.30
2022-12-18T03:43:37.382Z,1.30
2022-12-18T03:46:10.170Z,1.05
2022-12-18T03:48:44.449Z,1.17
2022-12-18T03:51:17.278Z,1.17
2022-12-18T03:53:52.535Z,1.20
2022-12-18T03:56:23.350Z,1.15
2022-12-18T03:58:54.627Z,1.20
2022-12-18T04:01:27.961Z,1.33
2022-12-18T04:03:57.231Z,1.42
2022-12-18T04:06:25.774Z,1.58
2022-12-18T04:08:54.633Z,1.35
2022-12-18T04:11:23.394Z,1.27
2022-12-18T04:13:57.342Z,1.45
2022-12-18T04:16:25.696Z,1.23
2022-12-18T04:18:54.259Z,1.23
2022-12-18T04:21:23.714Z,1.58
2022-12-18T04:23:52.171Z,1.50
2022-12-18T04:26:20.550Z,1.50
2022-12-18T04:28:48.931Z,1.50
2022-12-18T04:31:18.610Z,1.55
2022-12-18T04:33:46.901Z,1.50
2022-12-18T04:36:15.120Z,1.13
2022-12-18T04:38:43.447Z,1.20
2022-12-18T04:41:12.099Z,1.20
2022-12-18T04:43:40.734Z,1.20
2022-12-18T04:46:10.616Z,0.93
2022-12-18T04:48:40.457Z,1.27
2022-12-18T04:51:09.364Z,1.30
2022-12-18T04:53:37.955Z,1.33
2022-12-18T04:56:08.772Z,1.30
2022-12-18T04:58:37.249Z,1.10
2022-12-18T05:01:05.752Z,1.50
2022-12-18T05:03:34.109Z,1.02
2022-12-18T05:06:04.019Z,1.17
2022-12-18T05:08:32.861Z,1.10
2022-12-18T05:11:02.172Z,1.30
2022-12-18T05:13:30.793Z,1.10
2022-12-18T05:15:59.334Z,1.10
2022-12-18T05:18:28.438Z,1.13
2022-12-18T05:20:57.304Z,0.80
2022-12-18T05:23:27.414Z,1.10
2022-12-18T05:25:57.368Z,1.30
2022-12-18T05:28:27.078Z,1.10
2022-12-18T05:30:57.324Z,1.17
2022-12-18T05:33:27.803Z,1.33
2022-12-18T05:35:57.311Z,1.00
2022-12-18T05:38:28.764Z,1.17
2022-12-18T05:40:57.690Z,1.35
2022-12-18T05:43:29.117Z,1.25
2022-12-18T05:45:58.485Z,1.55
2022-12-18T05:50:54.889Z,1.40
2022-12-18T05:53:23.157Z,1.30
2022-12-18T05:55:52.903Z,1.35
2022-12-18T05:58:21.221Z,1.40
2022-12-18T06:00:49.499Z,1.63
2022-12-18T06:03:17.821Z,1.17
2022-12-18T06:05:47.247Z,1.40
2022-12-18T06:10:44.623Z,1.50
2022-12-18T06:13:14.332Z,1.60
2022-12-18T06:15:42.572Z,1.65
2022-12-18T06:18:10.827Z,1.30
2022-12-18T06:20:40.728Z,1.40
2022-12-18T06:23:09.140Z,1.80
2022-12-18T06:25:40.424Z,1.40
2022-12-18T06:28:08.787Z,1.23
2022-12-18T06:30:38.491Z,1.70
2022-12-18T06:33:07.726Z,1.42
2022-12-18T06:35:36.077Z,1.50
2022-12-18T06:38:04.649Z,1.40
2022-12-18T06:40:33.240Z,1.27
2022-12-18T06:43:01.523Z,0.93
2022-12-18T06:45:30.245Z,1.38
2022-12-18T06:48:00.066Z,1.40
2022-12-18T06:50:28.581Z,1.20
2022-12-18T06:52:56.907Z,1.70
2022-12-18T06:55:25.218Z,1.38
2022-12-18T06:57:53.737Z,1.50
2022-12-18T07:00:22.064Z,1.52
2022-12-18T07:02:50.427Z,1.25
2022-12-18T07:05:20.266Z,2.13
2022-12-18T07:07:48.557Z,1.70
2022-12-18T07:10:16.976Z,1.50
2022-12-18T07:12:45.269Z,0.63
2022-12-18T07:15:13.538Z,1.13
2022-12-18T07:17:41.897Z,1.00
2022-12-18T07:20:15.249Z,1.30
2022-12-18T07:22:45.153Z,1.45
2022-12-18T07:25:13.458Z,1.30
2022-12-18T07:27:41.705Z,1.30
2022-12-18T07:30:12.065Z,1.10
2022-12-18T07:32:40.400Z,1.48
2022-12-18T07:35:08.954Z,1.48
2022-12-18T07:37:37.255Z,1.65
2022-12-18T07:40:08.270Z,2.60
2022-12-18T07:42:37.851Z,2.22
2022-12-18T07:45:07.193Z,1.95
2022-12-18T07:50:05.789Z,1.67
2022-12-18T07:52:34.130Z,2.10
2022-12-18T07:55:02.674Z,2.08
2022-12-18T07:57:50.090Z,2.00
2022-12-18T08:00:20.474Z,2.33
2022-12-18T08:02:49.920Z,3.83
2022-12-18T08:05:18.448Z,12.63
2022-12-18T08:07:46.748Z,6.07
2022-12-18T08:10:15.306Z,8.55
2022-12-18T08:12:44.909Z,8.43
2022-12-18T08:15:13.388Z,7.90
2022-12-18T08:17:41.601Z,7.53
2022-12-18T08:20:11.150Z,13.35
2022-12-18T08:22:40.063Z,9.43
2022-12-18T08:25:09.271Z,10.45
2022-12-18T08:30:08.917Z,3.90
2022-12-18T08:32:37.462Z,4.88
2022-12-18T08:35:06.598Z,7.20
2022-12-18T08:37:34.863Z,4.43
2022-12-18T08:40:03.343Z,3.70
2022-12-18T08:42:49.159Z,2.20
2022-12-18T08:45:19.086Z,1.88
2022-12-18T08:47:47.391Z,3.47
2022-12-18T08:50:19.233Z,6.65
2022-12-18T08:52:47.639Z,1.85
2022-12-18T08:55:16.569Z,1.85
2022-12-18T08:57:44.817Z,1.92
2022-12-18T09:00:15.189Z,2.97
2022-12-18T09:02:45.455Z,3.90
2022-12-18T09:05:13.872Z,10.77
2022-12-18T09:07:42.133Z,7.07
2022-12-18T09:10:10.620Z,6.38
2022-12-18T09:12:38.865Z,4.65
2022-12-18T09:15:08.219Z,8.48
2022-12-18T09:17:36.498Z,6.35
2022-12-18T09:20:07.162Z,7.43
2022-12-18T09:22:35.460Z,8.35
2022-12-18T09:25:03.675Z,8.27
2022-12-18T09:27:31.938Z,6.60
2022-12-18T09:30:00.378Z,4.70
2022-12-18T09:32:28.819Z,8.00
2022-12-18T09:34:57.085Z,3.20
2022-12-18T09:37:26.882Z,6.32
2022-12-18T09:39:55.138Z,4.90
2022-12-18T09:42:24.405Z,3.70
2022-12-18T09:44:55.252Z,4.45
2022-12-18T09:47:28.099Z,4.22
2022-12-18T09:50:01.806Z,12.00
2022-12-18T09:52:36.325Z,7.20
2022-12-18T09:55:12.841Z,10.15
2022-12-18T09:57:47.415Z,7.15
2022-12-18T10:00:21.477Z,4.57
2022-12-18T10:02:51.865Z,2.80
2022-12-18T10:05:31.280Z,2.47
2022-12-18T10:08:07.846Z,5.32
2022-12-18T10:10:42.135Z,9.10
2022-12-18T10:13:20.756Z,7.45
2022-12-18T10:16:03.806Z,5.97
2022-12-18T10:18:51.161Z,3.65
2022-12-18T10:21:22.492Z,3.25
2022-12-18T10:24:00.535Z,2.53
2022-12-18T10:26:28.913Z,2.30
2022-12-18T10:29:03.803Z,2.20
2022-12-18T10:31:34.022Z,1.50
2022-12-18T10:34:02.730Z,1.20
2022-12-18T10:36:31.591Z,1.27
2022-12-18T10:39:17.314Z,2.08
2022-12-18T10:41:46.190Z,1.50
2022-12-18T10:44:19.792Z,1.70
2022-12-18T10:46:50.107Z,1.60
2022-12-18T10:49:24.633Z,1.10
2022-12-18T10:52:05.917Z,1.02
2022-12-18T10:54:37.154Z,1.20
2022-12-18T10:57:19.305Z,1.20
2022-12-18T10:59:55.776Z,1.50
2022-12-18T11:02:35.731Z,1.30
2022-12-18T11:05:06.377Z,1.17
2022-12-18T11:07:51.204Z,1.23
2022-12-18T11:10:22.874Z,2.00
2022-12-18T11:12:51.672Z,1.70
2022-12-18T11:15:23.192Z,1.48
2022-12-18T11:17:53.111Z,1.48
2022-12-18T11:20:32.223Z,1.33
2022-12-18T11:23:02.794Z,1.30
2022-12-18T11:25:36.196Z,1.45
2022-12-18T11:28:07.264Z,1.20
2022-12-18T11:30:37.524Z,1.40
2022-12-18T11:33:08.699Z,1.52
2022-12-18T11:35:46.771Z,1.38
2022-12-18T11:38:26.330Z,1.33
2022-12-18T11:41:00.347Z,1.27
2022-12-18T11:43:32.841Z,1.63
2022-12-18T11:46:05.897Z,1.70
2022-12-18T11:48:40.026Z,1.35
2022-12-18T11:51:16.787Z,1.73
2022-12-18T11:53:45.061Z,1.58
2022-12-18T11:56:29.864Z,1.50
2022-12-18T11:59:07.337Z,1.20
2022-12-18T12:01:48.414Z,1.60
2022-12-18T12:04:58.567Z,1.27
2022-12-18T12:07:39.425Z,1.42
2022-12-18T12:10:20.813Z,1.15
2022-12-18T12:13:02.363Z,1.38
2022-12-18T12:18:16.937Z,1.23
2022-12-18T12:20:52.479Z,1.40
2022-12-18T12:23:30.698Z,1.52
2022-12-18T12:26:05.116Z,2.78
2022-12-18T12:28:58.154Z,2.40
2022-12-18T12:31:40.361Z,1.38
2022-12-18T12:34:18.637Z,1.63
2022-12-18T12:37:04.219Z,1.20
2022-12-18T12:39:36.582Z,1.38
2022-12-18T12:42:25.413Z,1.20
2022-12-18T12:44:59.175Z,1.50
2022-12-18T12:47:31.980Z,1.40
2022-12-18T12:50:04.558Z,1.15
2022-12-18T12:52:42.073Z,1.70
2022-12-18T12:55:18.183Z,1.30
2022-12-18T12:57:57.214Z,1.42
2022-12-18T13:00:29.217Z,1.50
2022-12-18T13:03:05.656Z,1.67
2022-12-18T13:05:41.762Z,1.20
2022-12-18T13:08:11.559Z,1.52
2022-12-18T13:10:42.733Z,1.23
2022-12-18T13:13:11.633Z,1.65
2022-12-18T13:15:44.221Z,2.33
2022-12-18T13:18:21.706Z,2.67
2022-12-18T13:20:55.396Z,2.88
2022-12-18T13:23:35.775Z,2.78
2022-12-18T13:26:35.276Z,2.85
2022-12-18T13:29:05.252Z,3.50
2022-12-18T13:32:01.792Z,2.40
2022-12-18T13:34:32.706Z,2.30
2022-12-18T13:37:34.774Z,1.80
2022-12-18T13:40:03.183Z,1.63
2022-12-18T13:42:58.414Z,1.65
2022-12-18T13:46:01.635Z,1.40
2022-12-18T13:48:34.307Z,1.20
2022-12-18T13:51:05.510Z,1.40
2022-12-18T13:53:39.373Z,1.40
2022-12-18T13:56:08.386Z,1.10
2022-12-18T13:58:36.833Z,1.02
2022-12-18T14:01:06.001Z,1.38
2022-12-18T14:03:35.885Z,1.60
2022-12-18T14:06:08.057Z,1.27
2022-12-18T14:08:41.335Z,1.70
2022-12-18T14:11:22.294Z,1.30
2022-12-18T14:13:51.519Z,1.42
2022-12-18T14:16:20.151Z,1.73
2022-12-18T14:18:55.505Z,1.10
2022-12-18T14:21:30.289Z,1.40
2022-12-18T14:24:15.410Z,1.10
2022-12-18T14:26:45.577Z,1.13
2022-12-18T14:29:28.426Z,1.02
2022-12-18T14:32:17.390Z,1.30
2022-12-18T14:34:48.793Z,1.00
2022-12-18T14:37:20.167Z,1.20
2022-12-18T14:39:56.313Z,1.60
2022-12-18T14:42:28.868Z,1.17
2022-12-18T14:45:43.384Z,1.08
2022-12-18T14:48:23.248Z,1.20
2022-12-18T14:51:02.058Z,1.40
2022-12-18T14:53:41.711Z,1.60
2022-12-18T14:56:18.546Z,1.80
2022-12-18T14:58:49.323Z,2.70
2022-12-18T15:01:23.837Z,1.20
2022-12-18T15:03:53.553Z,2.13
2022-12-18T15:06:30.213Z,3.72
2022-12-18T15:08:59.794Z,2.40
2022-12-18T15:11:31.011Z,5.25
2022-12-18T15:14:01.656Z,4.38
2022-12-18T15:16:30.418Z,4.45
2022-12-18T15:18:58.749Z,5.22
2022-12-18T15:21:31.653Z,4.80
2022-12-18T15:24:00.970Z,3.83
2022-12-18T15:29:09.084Z,4.53
2022-12-18T15:31:39.986Z,4.00
2022-12-18T15:34:21.269Z,3.75
2022-12-18T15:36:53.078Z,3.20
2022-12-18T15:39:21.466Z,3.80
2022-12-18T15:42:07.075Z,3.28
2022-12-18T15:44:35.766Z,3.47
2022-12-18T15:47:04.083Z,3.80
2022-12-18T15:49:32.416Z,2.90
2022-12-18T15:52:04.001Z,2.78
2022-12-18T15:54:49.538Z,3.13
2022-12-18T15:57:27.493Z,3.63
2022-12-18T15:59:59.121Z,3.47
2022-12-18T16:02:28.953Z,4.00
2022-12-18T16:04:57.386Z,4.45
2022-12-18T16:07:30.274Z,4.82
2022-12-18T16:10:00.417Z,5.05
2022-12-18T16:12:30.920Z,4.40
2022-12-18T16:14:59.218Z,3.92
2022-12-18T16:17:27.614Z,6.03
2022-12-18T16:19:56.039Z,5.35
2022-12-18T16:22:27.741Z,4.50
2022-12-18T16:24:57.746Z,3.92
2022-12-18T16:27:26.949Z,4.05
2022-12-18T16:29:55.328Z,4.60
2022-12-18T16:32:24.801Z,4.53
2022-12-18T16:34:53.254Z,4.43
2022-12-18T16:37:21.600Z,4.72
2022-12-18T16:39:51.538Z,4.13
2022-12-18T16:42:21.543Z,3.65
2022-12-18T16:44:51.359Z,4.85
2022-12-18T16:47:20.113Z,4.30
2022-12-18T16:49:51.787Z,4.60
2022-12-18T16:52:20.687Z,4.50
2022-12-18T16:54:50.685Z,4.57
2022-12-18T16:57:21.525Z,6.10
2022-12-18T16:59:53.573Z,6.50
2022-12-18T17:02:24.503Z,5.60
2022-12-18T17:04:55.668Z,4.43
2022-12-18T17:07:24.320Z,5.90
2022-12-18T17:09:54.325Z,5.07
2022-12-18T17:12:23.277Z,3.80
2022-12-18T17:14:51.686Z,4.85
2022-12-18T17:17:23.172Z,5.10
2022-12-18T17:19:52.469Z,4.70
2022-12-18T17:22:21.301Z,4.10
2022-12-18T17:24:49.974Z,4.55
2022-12-18T17:27:19.875Z,4.80
2022-12-18T17:29:48.942Z,5.28
2022-12-18T17:34:46.124Z,4.60
2022-12-18T17:37:17.195Z,4.55
2022-12-18T17:39:45.577Z,4.50
2022-12-18T17:42:15.693Z,5.03
2022-12-18T17:44:46.059Z,5.07
2022-12-18T17:47:15.395Z,5.38
2022-12-18T17:52:12.251Z,5.07
2022-12-18T17:54:42.111Z,3.65
2022-12-18T17:57:10.773Z,4.70
2022-12-18T17:59:39.184Z,3.33
2022-12-18T18:02:10.962Z,5.00
2022-12-18T18:04:39.505Z,4.55
2022-12-18T18:07:07.878Z,5.38
2022-12-18T18:09:36.175Z,4.63
2022-12-18T18:12:21.780Z,5.00
2022-12-18T18:14:50.409Z,5.20
2022-12-18T18:17:20.700Z,4.18
2022-12-18T18:19:49.606Z,4.53
2022-12-18T18:22:18.746Z,3.60
2022-12-18T18:24:47.831Z,4.45
2022-12-18T18:27:16.387Z,4.20
2022-12-18T18:29:45.148Z,4.32
2022-12-18T18:32:13.479Z,4.95
2022-12-18T18:34:43.197Z,8.80
2022-12-18T18:37:11.905Z,8.15
2022-12-18T18:39:40.427Z,5.80
2022-12-18T18:42:08.936Z,6.05
2022-12-18T18:44:37.778Z,7.65
2022-12-18T18:47:09.420Z,6.72
2022-12-18T18:49:38.475Z,7.07
2022-12-18T18:52:08.351Z,5.72
2022-12-18T18:54:36.644Z,4.70
2022-12-18T18:57:20.304Z,6.60
2022-12-18T18:59:49.738Z,6.60
2022-12-18T19:02:18.983Z,7.57
2022-12-18T19:04:47.788Z,14.23
2022-12-18T19:07:29.994Z,18.58
2022-12-18T19:10:03.560Z,10.27
2022-12-18T19:12:51.912Z,12.70
2022-12-18T19:15:20.460Z,6.35
2022-12-18T19:17:49.105Z,12.65
2022-12-18T19:20:18.285Z,10.80
2022-12-18T19:22:54.370Z,17.20
2022-12-18T19:25:29.691Z,8.43
2022-12-18T19:28:21.647Z,37.45
2022-12-18T19:30:55.369Z,30.10
2022-12-18T19:33:44.844Z,21.60
2022-12-18T19:36:16.576Z,12.23
2022-12-18T19:38:46.561Z,27.15
2022-12-18T19:41:15.504Z,9.27
2022-12-18T19:43:44.532Z,9.15
2022-12-18T19:46:15.404Z,13.52
2022-12-18T19:48:45.470Z,13.95
2022-12-18T19:51:16.585Z,12.98
2022-12-18T19:53:47.182Z,9.77
2022-12-18T19:56:17.839Z,9.93
2022-12-18T19:58:46.595Z,7.57
2022-12-18T20:01:16.567Z,6.93
2022-12-18T20:03:51.716Z,7.82
2022-12-18T20:06:27.081Z,8.57
2022-12-18T20:09:00.689Z,8.82
2022-12-18T20:11:29.885Z,8.38
2022-12-18T20:13:58.251Z,6.75
2022-12-18T20:16:26.838Z,5.65
2022-12-18T20:18:55.237Z,6.00
2022-12-18T20:21:25.237Z,5.20
2022-12-18T20:26:25.150Z,5.25
2022-12-18T20:28:53.833Z,5.13
2022-12-18T20:31:22.230Z,4.57
2022-12-18T20:33:52.236Z,4.60
2022-12-18T20:36:24.624Z,5.75
2022-12-18T20:38:59.218Z,5.13
2022-12-18T20:41:37.323Z,4.53
2022-12-18T20:44:10.994Z,4.75
2022-12-18T20:46:53.106Z,5.40
2022-12-18T20:49:21.717Z,4.07
2022-12-18T20:51:52.578Z,4.85
2022-12-18T20:54:21.235Z,3.22
2022-12-18T20:56:51.513Z,4.43
2022-12-18T20:59:20.334Z,3.63
2022-12-18T21:01:49.483Z,3.92
2022-12-18T21:06:51.666Z,3.60
2022-12-18T21:09:22.724Z,4.30
2022-12-18T21:12:11.138Z,3.67
2022-12-18T21:14:43.353Z,3.00
2022-12-18T21:17:12.216Z,3.88
2022-12-18T21:19:41.540Z,3.75
2022-12-18T21:22:11.015Z,3.50
2022-12-18T21:24:39.614Z,3.83
2022-12-18T21:27:09.324Z,3.95
2022-12-18T21:29:41.253Z,4.00
2022-12-18T21:32:10.306Z,4.35
2022-12-18T21:34:43.312Z,2.63
2022-12-18T21:37:14.587Z,2.85
2022-12-18T21:39:42.833Z,4.38
2022-12-18T21:42:32.396Z,3.95
2022-12-18T21:45:06.904Z,6.03
2022-12-18T21:47:36.927Z,6.40
2022-12-18T21:50:06.558Z,8.73
2022-12-18T21:52:35.929Z,7.75
2022-12-18T21:55:09.453Z,8.20
2022-12-18T21:57:44.056Z,7.05
2022-12-18T22:00:18.430Z,6.82
2022-12-18T22:02:49.598Z,7.60
2022-12-18T22:05:36.571Z,5.45
2022-12-18T22:08:05.164Z,8.13
2022-12-18T22:10:33.814Z,8.40
2022-12-18T22:13:03.881Z,4.00
2022-12-18T22:15:32.192Z,6.10
2022-12-18T22:18:00.820Z,7.20
2022-12-18T22:20:29.802Z,5.75
2022-12-18T22:22:58.613Z,5.15
2022-12-18T22:25:28.126Z,4.70
2022-12-18T22:28:13.800Z,9.70
2022-12-18T22:30:43.754Z,8.57
2022-12-18T22:33:12.191Z,6.70
2022-12-18T22:35:40.839Z,5.82
2022-12-18T22:38:09.558Z,4.60
2022-12-18T22:40:37.890Z,5.30
2022-12-18T22:43:06.471Z,5.53
2022-12-18T22:45:37.988Z,4.80
2022-12-18T22:48:08.870Z,6.18
2022-12-18T22:50:37.471Z,8.32
2022-12-18T22:53:07.843Z,5.65
2022-12-18T22:55:36.707Z,5.30
2022-12-18T23:00:33.819Z,4.97
2022-12-18T23:03:02.321Z,4.63
2022-12-18T23:05:32.651Z,3.03
2022-12-18T23:08:01.010Z,3.22
2022-12-18T23:10:29.627Z,3.20
2022-12-18T23:12:58.036Z,4.53
2022-12-18T23:15:29.803Z,5.60
2022-12-18T23:17:59.770Z,4.40
2022-12-18T23:20:28.989Z,4.28
2022-12-18T23:22:58.655Z,3.70
2022-12-18T23:25:26.920Z,3.75
2022-12-18T23:27:55.236Z,3.42
2022-12-18T23:30:23.541Z,3.67
2022-12-18T23:32:51.852Z,3.13
2022-12-18T23:35:20.214Z,2.88
2022-12-18T23:37:59.047Z,2.78
2022-12-18T23:40:30.538Z,2.50
2022-12-18T23:43:00.772Z,2.20
2022-12-18T23:45:29.210Z,2.38
2022-12-18T23:47:57.526Z,2.13
2022-12-18T23:50:29.307Z,2.60
2022-12-18T23:53:05.186Z,2.40
2022-12-18T23:55:40.456Z,1.95
2022-12-18T23:58:16.062Z,2.45
